Time;durP1;ratioP1;P1;durP2;ratioP2;P2;SDS_P1;SDS_P2;PMS_P1;PMS_P2;Temp;Humidity;BMP_temperature;BMP_pressure;BME280_temperature;BME280_humidity;BME280_pressure;Samples;Min_cycle;Max_cycle;Signal;HPM_P1;HPM_P2
2021/01/27 08:15:08;;;;;;;1.35;0.47;;;19.50;43.70;;;;;;5109070;27;20894;-37
2021/01/27 08:17:45;;;;;;;4.80;0.88;;;19.50;44.70;;;;;;5110677;28;20044;-34
2021/01/27 08:20:24;;;;;;;3.22;0.50;;;19.60;45.10;;;;;;5108528;28;20028;-36
2021/01/27 08:23:01;;;;;;;2.83;0.38;;;19.70;45.00;;;;;;5110629;28;20028;-34
2021/01/27 08:25:58;;;;;;;2.30;0.50;;;19.80;44.70;;;;;;5105772;28;20095;-34
2021/01/27 08:28:38;;;;;;;3.10;0.55;;;19.80;44.60;;;;;;5110371;28;20117;-44
2021/01/27 08:31:12;;;;;;;2.38;0.55;;;19.90;44.60;;;;;;5110547;28;20032;-35
2021/01/27 08:33:47;;;;;;;3.15;0.60;;;19.90;44.60;;;;;;5108750;28;20035;-36
2021/01/27 08:36:18;;;;;;;1.85;0.65;;;19.90;44.50;;;;;;5109898;28;20028;-39
2021/01/27 08:38:58;;;;;;;1.23;0.40;;;20.00;44.60;;;;;;5108275;28;20036;-44
2021/01/27 08:41:50;;;;;;;0.25;0.20;;;20.00;44.80;;;;;;5108333;28;20056;-42
2021/01/27 08:44:22;;;;;;;1.48;0.50;;;20.10;44.70;;;;;;5104788;28;20089;-41
2021/01/27 08:47:21;;;;;;;0.40;0.40;;;20.10;44.80;;;;;;5104225;28;20480;-40
2021/01/27 08:50:03;;;;;;;2.45;0.50;;;20.10;44.70;;;;;;5093918;28;20029;-42
2021/01/27 08:52:38;;;;;;;1.08;0.40;;;20.10;44.60;;;;;;5097991;28;20373;-38
2021/01/27 08:55:36;;;;;;;0.57;0.35;;;20.20;44.70;;;;;;5097661;28;20073;-37
2021/01/27 08:58:23;;;;;;;3.20;0.50;;;20.30;44.70;;;;;;5101553;28;20024;-37
2021/01/27 09:01:02;;;;;;;1.58;0.30;;;20.30;44.70;;;;;;5097518;28;20044;-46
2021/01/27 09:03:37;;;;;;;0.95;0.40;;;20.30;44.70;;;;;;5107792;28;20027;-35
2021/01/27 09:06:05;;;;;;;1.60;0.60;;;20.40;44.60;;;;;;5090447;28;20047;-35
2021/01/27 09:08:34;;;;;;;1.08;0.30;;;20.50;44.80;;;;;;5090744;28;20393;-36
2021/01/27 09:11:08;;;;;;;1.20;0.55;;;20.50;44.80;;;;;;5097244;28;20081;-35
2021/01/27 09:13:40;;;;;;;1.70;0.30;;;20.50;44.70;;;;;;5091115;28;20060;-49
2021/01/27 09:16:32;;;;;;;1.65;0.40;;;20.50;44.70;;;;;;5091561;28;20042;-44
2021/01/27 09:19:14;;;;;;;1.33;0.63;;;20.60;44.70;;;;;;5090238;28;20060;-40
2021/01/27 09:21:46;;;;;;;2.05;0.40;;;20.60;44.70;;;;;;5091001;28;20048;-41
2021/01/27 09:24:25;;;;;;;1.65;0.40;;;20.70;44.70;;;;;;5087127;28;20028;-40
2021/01/27 09:26:55;;;;;;;1.85;0.52;;;20.70;44.70;;;;;;5077169;28;20347;-45
2021/01/27 09:29:22;;;;;;;0.70;0.30;;;20.70;44.70;;;;;;5075942;28;20044;-42
2021/01/27 09:31:51;;;;;;;0.30;0.30;;;20.80;44.70;;;;;;5076881;28;20028;-40
2021/01/27 09:34:29;;;;;;;0.85;0.40;;;20.80;44.70;;;;;;5075712;28;20070;-35
2021/01/27 09:37:08;;;;;;;0.57;0.38;;;20.80;44.70;;;;;;5077007;28;20086;-35
2021/01/27 09:39:39;;;;;;;3.27;0.40;;;20.80;44.80;;;;;;5076121;28;20055;-42
2021/01/27 09:42:35;;;;;;;1.45;0.40;;;20.90;44.90;;;;;;5076867;28;20436;-40
2021/01/27 09:45:05;;;;;;;0.47;0.40;;;20.90;44.80;;;;;;5067860;28;20029;-40
2021/01/27 09:47:43;;;;;;;0.70;0.40;;;21.00;44.80;;;;;;5090312;28;20059;-44
2021/01/27 09:50:10;;;;;;;0.22;0.22;;;21.00;44.80;;;;;;5081537;28;20502;-36
2021/01/27 09:52:41;;;;;;;0.50;0.40;;;21.00;45.00;;;;;;5075389;28;20032;-35
2021/01/27 09:55:12;;;;;;;0.40;0.40;;;21.00;44.90;;;;;;5085650;28;20206;-32
2021/01/27 09:57:41;;;;;;;0.38;0.38;;;21.10;44.80;;;;;;5076909;28;20039;-35
2021/01/27 10:00:13;;;;;;;0.30;0.30;;;21.10;44.80;;;;;;5076589;28;20035;-42
2021/01/27 10:02:42;;;;;;;0.25;0.25;;;21.10;44.80;;;;;;5075306;28;20047;-32
2021/01/27 10:05:40;;;;;;;0.75;0.32;;;21.10;44.80;;;;;;5076505;28;20039;-32
2021/01/27 10:08:19;;;;;;;0.52;0.52;;;21.20;44.80;;;;;;5075911;28;20134;-34
2021/01/27 10:11:12;;;;;;;0.67;0.30;;;21.20;44.90;;;;;;5075705;28;20035;-43
2021/01/27 10:13:45;;;;;;;1.17;0.50;;;21.20;44.90;;;;;;5075402;28;20394;-36
2021/01/27 10:16:15;;;;;;;0.35;0.32;;;21.20;44.80;;;;;;5075058;28;20106;-37
2021/01/27 10:18:46;;;;;;;;;;;21.30;44.90;;;;;;5078360;28;20061;-40
2021/01/27 10:21:19;;;;;;;0.38;0.38;;;21.30;44.80;;;;;;5074979;28;19999;-38
2021/01/27 10:23:49;;;;;;;0.55;0.40;;;21.30;44.80;;;;;;5090017;28;20036;-38
2021/01/27 10:27:06;;;;;;;0.40;0.40;;;21.40;45.80;;;;;;5091833;28;20032;-36
2021/01/27 10:29:38;;;;;;;0.50;0.40;;;21.40;44.90;;;;;;5010918;28;20101;-39
2021/01/27 10:32:28;;;;;;;0.55;0.55;;;21.50;44.90;;;;;;5010049;28;20040;-39
2021/01/27 10:34:55;;;;;;;0.57;0.50;;;21.50;44.80;;;;;;5009798;28;20081;-36
2021/01/27 10:37:36;;;;;;;0.30;0.30;;;21.50;44.80;;;;;;5010214;28;20081;-37
2021/01/27 10:40:12;;;;;;;1.05;0.50;;;21.50;44.80;;;;;;5009255;28;20446;-36
2021/01/27 10:42:42;;;;;;;1.20;0.43;;;21.60;44.90;;;;;;5010642;28;20116;-35
2021/01/27 10:45:26;;;;;;;0.47;0.47;;;21.60;44.80;;;;;;5008442;28;20034;-36
2021/01/27 10:48:06;;;;;;;2.17;0.50;;;21.60;44.80;;;;;;4999007;28;20038;-37
2021/01/27 10:50:32;;;;;;;0.60;0.60;;;21.60;44.80;;;;;;5002325;28;20040;-31
2021/01/27 10:53:01;;;;;;;0.50;0.50;;;21.60;44.90;;;;;;5010594;28;20084;-39
2021/01/27 10:55:33;;;;;;;0.70;0.70;;;21.70;44.90;;;;;;5009675;28;20471;-36
2021/01/27 10:58:16;;;;;;;0.55;0.50;;;21.70;44.90;;;;;;5010417;28;20064;-37
2021/01/27 11:00:44;;;;;;;0.47;0.47;;;21.70;45.50;;;;;;5055021;28;20040;-33
2021/01/27 11:03:10;;;;;;;1.00;0.95;;;21.70;44.80;;;;;;5076262;28;20120;-36
2021/01/27 11:05:37;;;;;;;0.60;0.60;;;21.80;44.90;;;;;;5076206;28;20115;-36
2021/01/27 11:08:13;;;;;;;5.43;0.50;;;21.80;44.90;;;;;;5074969;28;20073;-37
2021/01/27 11:10:40;;;;;;;3.95;0.40;;;21.80;45.30;;;;;;5074592;28;20028;-36
2021/01/27 11:13:12;;;;;;;0.40;0.40;;;21.80;45.50;;;;;;5073737;28;20083;-35
2021/01/27 11:15:58;;;;;;;0.40;0.40;;;21.90;45.60;;;;;;5083827;28;20024;-48
2021/01/27 11:18:34;;;;;;;1.40;0.50;;;21.90;45.60;;;;;;5077844;28;20042;-50
2021/01/27 11:21:16;;;;;;;1.17;0.30;;;22.00;45.60;;;;;;5098168;28;20080;-44
2021/01/27 11:23:43;;;;;;;1.08;0.50;;;22.00;45.60;;;;;;5083977;28;20028;-38
2021/01/27 11:26:21;;;;;;;0.77;0.40;;;22.00;45.70;;;;;;5097934;28;20027;-39
2021/01/27 11:28:50;;;;;;;1.50;0.70;;;22.00;45.70;;;;;;5076228;28;20474;-41
2021/01/27 11:31:19;;;;;;;0.47;0.47;;;22.00;45.90;;;;;;5075211;28;20016;-39
2021/01/27 11:33:50;;;;;;;1.65;0.40;;;22.00;45.80;;;;;;5075913;28;20032;-36
2021/01/27 11:36:22;;;;;;;1.20;0.47;;;22.00;45.80;;;;;;5074554;28;20021;-40
2021/01/27 11:38:52;;;;;;;1.05;0.55;;;22.00;45.90;;;;;;5075428;28;20032;-42
2021/01/27 11:41:20;;;;;;;4.77;0.87;;;22.00;45.90;;;;;;5072612;28;20107;-44
2021/01/27 11:43:47;;;;;;;1.77;0.80;;;22.00;46.00;;;;;;5089315;28;20278;-43
2021/01/27 11:46:18;;;;;;;3.33;0.75;;;22.00;46.00;;;;;;5084250;28;20025;-46
2021/01/27 11:48:50;;;;;;;2.88;0.90;;;22.00;46.10;;;;;;5088782;28;20032;-44
2021/01/27 11:51:23;;;;;;;2.80;0.73;;;21.90;46.10;;;;;;5090825;28;20067;-41
2021/01/27 11:53:53;;;;;;;1.95;1.23;;;22.00;46.10;;;;;;5089514;28;20057;-42
2021/01/27 11:56:20;;;;;;;2.38;0.98;;;22.00;46.30;;;;;;5087440;28;20025;-43
2021/01/27 11:58:48;;;;;;;3.20;0.80;;;21.90;46.40;;;;;;5074438;28;20029;-42
2021/01/27 12:01:17;;;;;;;2.85;1.10;;;22.00;46.60;;;;;;5073474;28;20025;-43
2021/01/27 12:03:46;;;;;;;1.67;0.70;;;22.00;46.70;;;;;;5074481;28;20124;-41
2021/01/27 12:06:15;;;;;;;2.72;0.98;;;22.00;46.80;;;;;;5073395;28;20028;-43
2021/01/27 12:08:49;;;;;;;2.25;0.75;;;22.00;46.70;;;;;;5074377;28;20107;-37
2021/01/27 12:11:18;;;;;;;4.22;0.95;;;22.00;46.90;;;;;;5089618;28;20032;-37
2021/01/27 12:13:58;;;;;;;1.48;0.57;;;22.00;46.70;;;;;;5081235;28;20049;-45
2021/01/27 12:16:26;;;;;;;3.60;0.70;;;22.00;46.70;;;;;;5073228;28;20029;-40
2021/01/27 12:18:56;;;;;;;3.60;1.38;;;22.00;46.60;;;;;;5073751;28;20542;-44
2021/01/27 12:21:24;;;;;;;1.20;0.70;;;22.00;46.80;;;;;;5076756;28;20025;-42
2021/01/27 12:23:52;;;;;;;3.13;0.65;;;22.00;46.90;;;;;;5089253;28;20115;-33
2021/01/27 12:26:21;;;;;;;0.98;0.68;;;22.00;46.90;;;;;;5088663;28;20028;-51
2021/01/27 12:28:49;;;;;;;2.30;0.88;;;22.00;46.90;;;;;;5070067;28;20057;-43
2021/01/27 12:31:22;;;;;;;1.83;0.50;;;22.00;46.80;;;;;;5070673;28;20077;-43
2021/01/27 12:34:01;;;;;;;1.48;0.60;;;22.00;46.80;;;;;;5081750;28;20039;-36
2021/01/27 12:36:31;;;;;;;2.65;0.82;;;22.10;46.80;;;;;;5094305;28;20058;-40
2021/01/27 12:39:01;;;;;;;5.10;0.60;;;22.10;46.70;;;;;;5096391;28;20315;-37
2021/01/27 12:41:54;;;;;;;1.08;0.70;;;22.10;46.80;;;;;;5081072;28;20058;-35
2021/01/27 12:44:25;;;;;;;10.85;1.30;;;22.00;46.80;;;;;;5084516;28;20036;-37
2021/01/27 12:46:58;;;;;;;1.30;0.60;;;22.10;46.60;;;;;;5089775;28;20111;-38
2021/01/27 12:49:28;;;;;;;1.08;0.57;;;22.10;46.60;;;;;;5091838;28;20073;-41
2021/01/27 12:52:09;;;;;;;1.10;0.57;;;22.00;46.50;;;;;;5079431;28;20081;-35
2021/01/27 12:55:05;;;;;;;1.60;0.50;;;22.10;46.70;;;;;;5073794;28;20041;-38
2021/01/27 12:57:42;;;;;;;2.63;0.90;;;22.00;46.70;;;;;;5082619;28;20028;-33
2021/01/27 13:00:22;;;;;;;1.48;0.60;;;22.10;46.70;;;;;;5086529;28;20392;-33
2021/01/27 13:03:03;;;;;;;3.50;0.60;;;22.10;46.80;;;;;;5088169;28;20419;-38
2021/01/27 13:05:37;;;;;;;1.15;0.50;;;22.10;46.70;;;;;;5089208;28;20115;-43
2021/01/27 13:08:07;;;;;;;2.03;0.85;;;22.00;46.70;;;;;;5077670;28;20068;-43
2021/01/27 13:10:45;;;;;;;4.20;0.43;;;22.10;46.60;;;;;;5094026;28;20028;-43
2021/01/27 13:13:18;;;;;;;5.05;1.50;;;22.10;46.70;;;;;;5092398;28;20052;-44
2021/01/27 13:15:47;;;;;;;1.65;0.50;;;22.10;46.80;;;;;;5077259;28;20034;-43
2021/01/27 13:18:13;;;;;;;0.95;0.63;;;22.10;47.00;;;;;;5078446;28;20073;-47
2021/01/27 13:20:45;;;;;;;1.20;0.90;;;22.00;47.90;;;;;;5077242;28;20054;-52
2021/01/27 13:23:13;;;;;;;2.42;1.20;;;22.00;47.30;;;;;;5078288;28;20028;-32
2021/01/27 13:25:41;;;;;;;3.20;1.02;;;22.00;47.30;;;;;;5078368;28;20126;-44
2021/01/27 13:28:09;;;;;;;2.42;0.70;;;22.00;47.30;;;;;;5077116;28;20021;-39
2021/01/27 13:30:37;;;;;;;0.65;0.55;;;22.00;47.20;;;;;;5078985;28;20092;-32
2021/01/27 13:33:15;;;;;;;1.65;0.70;;;22.00;47.40;;;;;;5083036;28;20485;-32
2021/01/27 13:35:45;;;;;;;0.73;0.52;;;21.90;47.40;;;;;;5085096;28;20119;-39
2021/01/27 13:38:14;;;;;;;0.95;0.70;;;22.00;47.30;;;;;;5099677;28;20032;-33
2021/01/27 13:40:40;;;;;;;3.50;0.70;;;21.90;47.10;;;;;;5087663;28;20051;-43
2021/01/27 13:43:09;;;;;;;0.75;0.75;;;22.00;46.70;;;;;;5076913;28;20020;-39
2021/01/27 13:45:38;;;;;;;2.20;0.80;;;22.00;46.50;;;;;;5077011;28;20661;-33
2021/01/27 13:48:10;;;;;;;0.93;0.60;;;22.00;46.80;;;;;;5076752;28;20028;-37
2021/01/27 13:50:39;;;;;;;1.98;0.80;;;22.00;46.50;;;;;;5076795;28;20077;-38
2021/01/27 13:53:07;;;;;;;2.40;0.50;;;22.00;46.60;;;;;;5080604;28;20060;-54
2021/01/27 13:55:34;;;;;;;1.85;0.52;;;22.00;46.40;;;;;;5077001;28;20028;-39
2021/01/27 13:58:01;;;;;;;1.58;0.60;;;22.00;46.30;;;;;;5076726;28;20056;-47
2021/01/27 14:00:38;;;;;;;0.70;0.52;;;22.00;46.30;;;;;;5077745;28;20020;-47
2021/01/27 14:03:04;;;;;;;0.60;0.60;;;22.00;46.30;;;;;;5076696;28;20082;-41
2021/01/27 14:05:31;;;;;;;1.95;0.70;;;22.00;46.20;;;;;;5077302;28;20028;-45
2021/01/27 14:07:57;;;;;;;0.50;0.50;;;22.00;46.20;;;;;;5076621;28;20032;-44
2021/01/27 14:10:26;;;;;;;0.68;0.68;;;22.00;46.20;;;;;;5077255;28;20024;-45
2021/01/27 14:12:52;;;;;;;0.80;0.75;;;22.00;46.10;;;;;;5076191;28;20032;-46
2021/01/27 14:15:21;;;;;;;1.48;0.70;;;22.00;46.10;;;;;;5078488;28;20367;-45
2021/01/27 14:17:48;;;;;;;1.63;0.73;;;21.90;46.10;;;;;;5085425;28;20052;-44
2021/01/27 14:20:17;;;;;;;2.95;0.82;;;21.90;46.00;;;;;;5089095;28;20439;-45
2021/01/27 14:22:43;;;;;;;0.57;0.57;;;21.90;46.10;;;;;;5093586;28;20035;-44
2021/01/27 14:25:25;;;;;;;0.60;0.60;;;21.90;46.00;;;;;;5091777;28;20040;-46
2021/01/27 14:27:52;;;;;;;1.02;0.40;;;21.80;46.00;;;;;;5078400;28;20485;-46
2021/01/27 14:30:24;;;;;;;6.03;0.65;;;21.80;46.00;;;;;;5075003;28;20024;-45
2021/01/27 14:32:50;;;;;;;0.50;0.50;;;21.80;46.10;;;;;;5075001;28;20032;-45
2021/01/27 14:35:18;;;;;;;3.30;0.73;;;21.80;46.10;;;;;;5086954;28;20359;-38
2021/01/27 14:37:46;;;;;;;2.80;0.60;;;21.80;46.10;;;;;;5075877;28;20036;-47
2021/01/27 14:40:13;;;;;;;3.60;0.60;;;21.80;46.00;;;;;;5075121;28;20059;-37
2021/01/27 14:42:39;;;;;;;1.30;0.90;;;21.80;46.10;;;;;;5074630;28;20078;-39
2021/01/27 14:45:06;;;;;;;1.40;0.60;;;21.80;46.20;;;;;;5074773;28;20052;-47
2021/01/27 14:47:32;;;;;;;1.17;0.60;;;21.80;46.20;;;;;;5074454;28;20031;-42
2021/01/27 14:49:58;;;;;;;0.68;0.50;;;21.70;46.30;;;;;;5089361;28;20040;-39
2021/01/27 14:52:25;;;;;;;0.57;0.50;;;21.70;47.10;;;;;;5077921;28;20047;-43
2021/01/27 14:54:51;;;;;;;0.50;0.50;;;21.70;46.20;;;;;;5074343;28;20048;-43
2021/01/27 14:57:18;;;;;;;0.95;0.50;;;21.70;46.40;;;;;;5077165;28;20033;-40
2021/01/27 14:59:44;;;;;;;0.93;0.60;;;21.70;46.40;;;;;;5081429;28;20111;-48
2021/01/27 15:02:10;;;;;;;1.13;0.50;;;21.70;46.40;;;;;;5074507;28;20470;-48
2021/01/27 15:04:36;;;;;;;0.95;0.60;;;21.70;46.50;;;;;;5074012;28;20551;-45
2021/01/27 15:07:02;;;;;;;0.95;0.60;;;21.70;46.70;;;;;;5074113;28;20020;-45
2021/01/27 15:09:29;;;;;;;4.88;1.17;;;21.60;46.50;;;;;;5073814;28;20074;-48
2021/01/27 15:11:55;;;;;;;2.58;0.60;;;21.60;46.50;;;;;;5083061;28;20028;-40
2021/01/27 15:14:22;;;;;;;0.55;0.45;;;21.60;46.50;;;;;;5073830;28;20102;-44
2021/01/27 15:16:48;;;;;;;0.40;0.40;;;21.60;46.50;;;;;;5072568;28;20037;-48
2021/01/27 15:19:14;;;;;;;0.50;0.50;;;21.60;46.50;;;;;;5073985;28;20023;-51
2021/01/27 15:21:40;;;;;;;0.63;0.50;;;21.50;46.40;;;;;;5073780;28;20036;-51
2021/01/27 15:24:06;;;;;;;0.52;0.40;;;21.50;46.50;;;;;;5084026;28;20045;-61
2021/01/27 15:26:32;;;;;;;0.75;0.50;;;21.50;46.50;;;;;;5083010;28;20103;-37
2021/01/27 15:28:58;;;;;;;0.73;0.63;;;21.50;46.50;;;;;;5083315;28;20156;-38
2021/01/27 15:31:24;;;;;;;2.95;0.60;;;21.50;46.60;;;;;;5084383;28;20484;-39
2021/01/27 15:33:50;;;;;;;1.40;0.98;;;21.50;46.60;;;;;;5084215;28;20024;-60
2021/01/27 15:36:18;;;;;;;1.00;0.50;;;21.40;46.50;;;;;;5083015;28;20413;-46
2021/01/27 15:38:44;;;;;;;1.88;0.57;;;21.40;46.70;;;;;;5084890;28;20039;-36
2021/01/27 15:41:11;;;;;;;1.00;0.50;;;21.40;46.70;;;;;;5085890;28;20065;-36
2021/01/27 15:43:37;;;;;;;0.75;0.70;;;21.40;46.80;;;;;;5074654;28;20028;-36
2021/01/27 15:46:03;;;;;;;2.15;0.50;;;21.40;46.80;;;;;;5074467;28;20553;-36
2021/01/27 15:48:32;;;;;;;0.75;0.70;;;21.30;46.80;;;;;;5092071;28;20488;-36
2021/01/27 15:51:01;;;;;;;1.30;0.82;;;21.30;46.70;;;;;;5078773;28;20112;-46
2021/01/27 15:53:33;;;;;;;1.55;1.23;;;21.30;46.90;;;;;;5075633;28;20485;-44
2021/01/27 15:56:02;;;;;;;1.65;0.57;;;21.30;46.80;;;;;;5083615;28;20029;-35
2021/01/27 15:58:28;;;;;;;1.50;0.52;;;21.30;47.00;;;;;;5081493;28;20035;-38
2021/01/27 16:00:54;;;;;;;0.50;0.50;;;21.20;46.90;;;;;;5094043;28;20488;-51
2021/01/27 16:03:20;;;;;;;0.50;0.40;;;21.30;46.90;;;;;;5093746;28;20044;-35
2021/01/27 16:05:46;;;;;;;0.73;0.30;;;21.20;46.80;;;;;;5093264;28;20119;-57
2021/01/27 16:08:11;;;;;;;3.70;0.60;;;21.20;46.90;;;;;;5087446;28;20071;-42
2021/01/27 16:10:37;;;;;;;1.17;0.50;;;21.20;47.00;;;;;;5073346;28;20029;-33
2021/01/27 16:13:05;;;;;;;0.50;0.50;;;21.20;47.00;;;;;;5093529;28;20082;-32
2021/01/27 16:15:38;;;;;;;1.52;0.52;;;21.20;46.80;;;;;;5093918;28;20365;-39
2021/01/27 16:18:06;;;;;;;0.77;0.50;;;21.20;46.80;;;;;;5093502;28;20369;-48
2021/01/27 16:20:41;;;;;;;1.10;0.57;;;21.20;47.10;;;;;;5093590;28;20035;-47
2021/01/27 16:23:14;;;;;;;2.05;0.57;;;21.10;46.90;;;;;;5086410;28;20040;-45
2021/01/27 16:25:46;;;;;;;1.65;0.80;;;21.10;47.00;;;;;;5078566;28;20055;-43
2021/01/27 16:28:14;;;;;;;1.15;0.55;;;21.10;47.20;;;;;;5093509;28;20024;-40
2021/01/27 16:30:43;;;;;;;0.43;0.40;;;21.10;46.90;;;;;;5078052;28;20025;-36
2021/01/27 16:33:16;;;;;;;1.02;0.40;;;21.10;46.90;;;;;;5072866;28;20405;-37
2021/01/27 16:35:42;;;;;;;1.10;0.60;;;21.10;46.80;;;;;;5074535;28;20489;-36
2021/01/27 16:38:10;;;;;;;4.03;0.68;;;21.00;47.00;;;;;;5076170;28;20024;-38
2021/01/27 16:40:41;;;;;;;0.40;0.40;;;21.00;47.00;;;;;;5076184;28;20029;-43
2021/01/27 16:43:12;;;;;;;0.68;0.50;;;21.00;47.00;;;;;;5076017;28;20032;-41
2021/01/27 16:45:38;;;;;;;1.38;0.55;;;21.00;46.90;;;;;;5075960;28;20036;-39
2021/01/27 16:48:05;;;;;;;1.33;0.55;;;21.00;47.00;;;;;;5075961;28;20470;-46
2021/01/27 16:50:31;;;;;;;1.27;0.75;;;20.90;47.00;;;;;;5076013;28;20431;-36
2021/01/27 16:52:58;;;;;;;3.13;1.02;;;20.90;47.20;;;;;;5075943;28;20043;-34
2021/01/27 16:55:27;;;;;;;0.32;0.30;;;20.90;47.20;;;;;;5075496;28;20490;-33
2021/01/27 16:57:53;;;;;;;0.45;0.45;;;20.90;47.00;;;;;;5075535;28;20028;-32
2021/01/27 17:00:22;;;;;;;0.60;0.50;;;20.90;46.80;;;;;;5075867;28;20101;-32
2021/01/27 17:02:52;;;;;;;0.30;0.30;;;20.80;46.70;;;;;;5075718;28;20024;-32
